Craven, South Dakota
Current Conditions -  °F | °C
As of 5:53 AM on Friday 19 Dec 2014 (Local Time) from KABR Reporting Station
Haze Haze  
Wind Chill: 18°   Ceiling: 500
Heat Index: 28°   Visibility: 6mi
Dew Point: 25°   Wind: 12mph
Humidity: 88%   Direction: 190°S
Pressure: 30.07"   Gusts: NA
Location:  45.4188°N, 99.0275°W
Report Text: KABR 191153Z AUTO 19010KT 6SM BR OVC005 M02/M04 A3007 RMK AO2 SLP200 T10221039 11022 21028 58009
Loading
Personal Weather Stations






























Interactive Weather Map New forecast layout! Learn more

10-Day Weather Forecast

Advertisements
Track Severe Weather on mobile